Tylerton, Maryland
Current Conditions -  °F | °C
As of 1:53 PM on Friday 24 Oct 2014 (Local Time) from KNUI Reporting Station
Clear Clear  
Wind Chill: 64°   Ceiling: Unl
Heat Index: 64°   Visibility: 10mi
Dew Point: 45°   Wind: 16mph
Humidity: 50%   Direction: 260°W
Pressure: 29.9"   Gusts: 23mph
Location:  37.97°N, 76.02°W
Report Text: KNUI 241753Z AUTO 26014G20KT 10SM CLR 18/07 A2990 RMK AO2 SLP125 T01780072 10194 20122 58017 $
Loading
Personal Weather Stations






























Interactive Weather Map
Tropical Storm Tracking
New forecast layout! Learn more

10-Day Weather Forecast

Advertisements
Track Severe Weather on mobile